createdAt,value
2023-04-10T00:00:23.394Z,51.69
2023-04-10T00:02:50.109Z,51.91
2023-04-10T00:05:16.726Z,51.59
2023-04-10T00:07:43.164Z,51.76
2023-04-10T00:10:09.975Z,52.05
2023-04-10T00:12:37.760Z,52.07
2023-04-10T00:15:04.605Z,52.13
2023-04-10T00:17:31.135Z,52.31
2023-04-10T00:19:59.210Z,52.53
2023-04-10T00:22:25.913Z,52.46
2023-04-10T00:24:52.355Z,52.19
2023-04-10T00:27:18.828Z,52.36
2023-04-10T00:29:48.270Z,52.63
2023-04-10T00:32:14.779Z,52.54
2023-04-10T00:34:41.504Z,52.68
2023-04-10T00:37:07.990Z,52.84
2023-04-10T00:39:34.466Z,53.04
2023-04-10T00:42:02.432Z,52.88
2023-04-10T00:44:29.064Z,53.14
2023-04-10T00:46:55.637Z,53.18
2023-04-10T00:49:22.130Z,53.08
2023-04-10T00:51:48.849Z,53.24
2023-04-10T00:54:16.740Z,53.55
2023-04-10T00:56:44.992Z,53.97
2023-04-10T00:59:11.433Z,54.33
2023-04-10T01:01:37.966Z,54.41
2023-04-10T01:04:05.061Z,54.37
2023-04-10T01:06:40.623Z,54.60
2023-04-10T01:09:22.401Z,54.67
2023-04-10T01:12:03.585Z,55.06
2023-04-10T01:14:57.687Z,55.36
2023-04-10T01:17:33.237Z,55.45
2023-04-10T01:20:09.387Z,55.60
2023-04-10T01:22:44.192Z,55.66
2023-04-10T01:25:34.864Z,55.87
2023-04-10T01:28:43.301Z,56.09
2023-04-10T01:31:14.486Z,56.06
2023-04-10T01:33:47.806Z,56.09
2023-04-10T01:36:22.598Z,56.42
2023-04-10T01:38:51.559Z,56.17
2023-04-10T01:41:19.833Z,56.48
2023-04-10T01:43:50.827Z,56.49
2023-04-10T01:46:19.753Z,56.52
2023-04-10T01:48:47.357Z,56.62
2023-04-10T01:51:15.555Z,56.67
2023-04-10T01:53:45.702Z,57.01
2023-04-10T01:56:13.300Z,57.14
2023-04-10T01:58:40.954Z,56.92
2023-04-10T02:01:10.265Z,57.21
2023-04-10T02:03:43.306Z,57.12
2023-04-10T02:06:40.650Z,57.17
2023-04-10T02:09:22.003Z,57.12
2023-04-10T02:11:55.894Z,57.31
2023-04-10T02:14:25.710Z,57.41
2023-04-10T02:16:55.354Z,57.74
2023-04-10T02:19:27.825Z,57.59
2023-04-10T02:21:55.010Z,57.80
2023-04-10T02:24:22.238Z,57.50
2023-04-10T02:26:51.024Z,57.75
2023-04-10T02:29:18.061Z,58.15
2023-04-10T02:31:46.140Z,57.95
2023-04-10T02:34:12.981Z,58.19
2023-04-10T02:36:40.003Z,57.91
2023-04-10T02:39:06.821Z,58.14
2023-04-10T02:41:33.333Z,57.75
2023-04-10T02:43:59.802Z,58.52
2023-04-10T02:46:26.411Z,58.29
2023-04-10T02:48:53.479Z,58.07
2023-04-10T02:51:19.988Z,58.63
2023-04-10T02:53:47.093Z,58.24
2023-04-10T02:56:14.039Z,58.28
2023-04-10T02:58:41.893Z,58.58
2023-04-10T03:01:08.271Z,58.32
2023-04-10T03:03:34.741Z,58.04
2023-04-10T03:06:01.251Z,57.96
2023-04-10T03:08:27.849Z,58.23
2023-04-10T03:10:54.282Z,58.20
2023-04-10T03:13:21.106Z,58.32
2023-04-10T03:15:47.541Z,58.13
2023-04-10T03:18:14.429Z,58.05
2023-04-10T03:20:41.622Z,58.32
2023-04-10T03:23:09.209Z,58.00
2023-04-10T03:25:36.662Z,57.81
2023-04-10T03:28:03.464Z,57.79
2023-04-10T03:30:30.254Z,57.92
2023-04-10T03:32:56.813Z,57.96
2023-04-10T03:35:23.378Z,57.75
2023-04-10T03:37:49.767Z,57.61
2023-04-10T03:40:16.229Z,57.95
2023-04-10T03:42:42.717Z,58.13
2023-04-10T03:45:09.770Z,57.75
2023-04-10T03:47:36.497Z,57.95
2023-04-10T03:50:03.145Z,57.73
2023-04-10T03:52:29.540Z,57.84
2023-04-10T03:54:56.341Z,57.62
2023-04-10T03:57:22.821Z,57.89
2023-04-10T03:59:49.282Z,58.00
2023-04-10T04:02:16.115Z,57.80
2023-04-10T04:04:43.502Z,57.67
2023-04-10T04:07:11.147Z,58.00
2023-04-10T04:09:37.555Z,58.17
2023-04-10T04:12:04.033Z,58.10
2023-04-10T04:14:30.677Z,57.76
2023-04-10T04:16:57.215Z,57.67
2023-04-10T04:19:23.736Z,57.60
2023-04-10T04:21:50.329Z,57.90
2023-04-10T04:24:16.901Z,57.97
2023-04-10T04:26:43.452Z,58.23
2023-04-10T04:29:12.132Z,58.16
2023-04-10T04:31:41.324Z,58.37
2023-04-10T04:34:07.813Z,58.50
2023-04-10T04:36:34.227Z,58.34
2023-04-10T04:39:00.697Z,58.34
2023-04-10T04:41:27.213Z,58.03
2023-04-10T04:43:56.632Z,58.23
2023-04-10T04:46:23.361Z,58.04
2023-04-10T04:48:49.995Z,58.21
2023-04-10T04:51:19.329Z,58.55
2023-04-10T04:53:45.952Z,58.69
2023-04-10T04:56:12.467Z,58.64
2023-04-10T04:58:40.793Z,58.42
2023-04-10T05:01:07.988Z,58.68
2023-04-10T05:03:34.709Z,58.82
2023-04-10T05:06:01.501Z,58.67
2023-04-10T05:08:27.908Z,58.84
2023-04-10T05:10:54.311Z,59.19
2023-04-10T05:13:20.867Z,59.24
2023-04-10T05:15:48.533Z,59.45
2023-04-10T05:18:19.791Z,59.32
2023-04-10T05:20:47.486Z,59.50
2023-04-10T05:23:13.949Z,59.57
2023-04-10T05:25:42.310Z,59.64
2023-04-10T05:28:08.911Z,59.41
2023-04-10T05:30:35.357Z,59.65
2023-04-10T05:33:01.859Z,59.34
2023-04-10T05:35:28.520Z,59.45
2023-04-10T05:37:54.890Z,59.40
2023-04-10T05:40:21.342Z,59.16
2023-04-10T05:42:47.875Z,59.05
2023-04-10T05:45:14.911Z,58.97
2023-04-10T05:47:41.495Z,58.92
2023-04-10T05:50:08.228Z,58.84
2023-04-10T05:52:34.702Z,58.70
2023-04-10T05:55:01.188Z,58.42
2023-04-10T05:57:27.633Z,58.31
2023-04-10T05:59:54.028Z,58.47
2023-04-10T06:02:23.305Z,58.34
2023-04-10T06:04:52.148Z,58.11
2023-04-10T06:07:18.709Z,57.59
2023-04-10T06:09:45.285Z,57.69
2023-04-10T06:12:11.879Z,57.35
2023-04-10T06:14:38.383Z,57.04
2023-04-10T06:17:04.876Z,57.23
2023-04-10T06:19:31.351Z,56.67
2023-04-10T06:21:57.768Z,56.36
2023-04-10T06:24:24.159Z,56.03
2023-04-10T06:26:50.529Z,55.93
2023-04-10T06:29:17.086Z,55.82
2023-04-10T06:31:44.633Z,55.22
2023-04-10T06:34:11.160Z,55.53
2023-04-10T06:36:37.786Z,55.00
2023-04-10T06:39:04.337Z,54.92
2023-04-10T06:41:30.732Z,54.57
2023-04-10T06:43:57.091Z,54.51
2023-04-10T06:46:23.527Z,54.22
2023-04-10T06:48:49.919Z,53.88
2023-04-10T06:51:19.400Z,53.75
2023-04-10T06:53:45.882Z,53.44
2023-04-10T06:56:12.367Z,53.53
2023-04-10T06:58:38.764Z,53.38
2023-04-10T07:01:05.809Z,52.88
2023-04-10T07:03:32.861Z,52.51
2023-04-10T07:06:01.907Z,52.09
2023-04-10T07:08:28.393Z,51.92
2023-04-10T07:10:55.533Z,51.91
2023-04-10T07:13:23.771Z,51.79
2023-04-10T07:15:53.223Z,51.75
2023-04-10T07:18:19.817Z,51.05
2023-04-10T07:20:48.472Z,51.01
2023-04-10T07:23:15.366Z,50.13
2023-04-10T07:25:43.279Z,49.88
2023-04-10T07:28:09.683Z,49.31
2023-04-10T07:30:36.437Z,48.87
2023-04-10T07:33:03.122Z,48.45
2023-04-10T07:35:29.988Z,48.20
2023-04-10T07:37:56.600Z,46.50
2023-04-10T07:40:25.635Z,45.76
2023-04-10T07:42:53.777Z,44.96
2023-04-10T07:45:20.642Z,44.80
2023-04-10T07:47:47.098Z,44.98
2023-04-10T07:50:13.588Z,44.58
2023-04-10T07:52:40.143Z,43.81
2023-04-10T07:55:06.801Z,43.02
2023-04-10T07:57:33.335Z,43.52
2023-04-10T07:59:59.835Z,43.66
2023-04-10T08:02:26.629Z,43.08
2023-04-10T08:04:53.307Z,43.29
2023-04-10T08:07:23.818Z,43.97
2023-04-10T08:09:50.301Z,43.72
2023-04-10T08:12:17.565Z,43.85
2023-04-10T08:14:44.918Z,43.18
2023-04-10T08:17:14.820Z,43.25
2023-04-10T08:19:42.366Z,42.86
2023-04-10T08:22:09.294Z,43.03
2023-04-10T08:24:35.838Z,42.66
2023-04-10T08:27:02.614Z,43.00
2023-04-10T08:29:31.876Z,42.96
2023-04-10T08:32:00.903Z,42.45
2023-04-10T08:34:27.858Z,42.65
2023-04-10T08:36:54.820Z,42.90
2023-04-10T08:39:21.400Z,42.68
2023-04-10T08:41:50.626Z,43.23
2023-04-10T08:44:17.694Z,42.94
2023-04-10T08:46:45.410Z,43.39
2023-04-10T08:49:21.427Z,43.51
2023-04-10T08:51:58.886Z,43.94
2023-04-10T08:54:29.816Z,43.78
2023-04-10T08:56:58.526Z,44.01
2023-04-10T08:59:25.432Z,44.10
2023-04-10T09:01:51.963Z,44.38
2023-04-10T09:04:18.580Z,44.73
2023-04-10T09:06:48.179Z,44.91
2023-04-10T09:09:14.633Z,44.87
2023-04-10T09:11:53.880Z,45.28
2023-04-10T09:14:24.892Z,45.09
2023-04-10T09:16:53.026Z,45.51
2023-04-10T09:19:33.219Z,45.55
2023-04-10T09:22:00.179Z,45.55
2023-04-10T09:24:27.491Z,45.65
2023-04-10T09:26:54.376Z,45.63
2023-04-10T09:29:20.877Z,46.08
2023-04-10T09:31:47.655Z,46.07
2023-04-10T09:34:16.909Z,46.06
2023-04-10T09:36:53.233Z,46.03
2023-04-10T09:39:19.829Z,46.16
2023-04-10T09:41:57.164Z,46.20
2023-04-10T09:44:35.126Z,46.24
2023-04-10T09:47:13.485Z,45.79
2023-04-10T09:49:48.263Z,45.74
2023-04-10T09:52:26.216Z,45.71
2023-04-10T09:55:04.703Z,45.69
2023-04-10T09:57:32.928Z,45.27
2023-04-10T10:00:02.102Z,44.90
2023-04-10T10:02:31.234Z,45.04
2023-04-10T10:05:02.306Z,45.08
2023-04-10T10:07:30.704Z,44.77
2023-04-10T10:09:58.869Z,44.74
2023-04-10T10:12:42.585Z,44.67
2023-04-10T10:15:43.499Z,44.59
2023-04-10T10:18:27.352Z,44.91
2023-04-10T10:20:54.594Z,44.95
2023-04-10T10:23:22.419Z,44.63
2023-04-10T10:25:49.047Z,44.72
2023-04-10T10:28:16.982Z,44.76
2023-04-10T10:30:44.732Z,44.81
2023-04-10T10:33:13.433Z,43.86
2023-04-10T10:35:40.731Z,43.77
2023-04-10T10:38:08.179Z,43.82
2023-04-10T10:40:48.988Z,43.91
2023-04-10T10:43:47.681Z,43.65
2023-04-10T10:46:24.435Z,43.55
2023-04-10T10:48:58.351Z,43.14
2023-04-10T10:51:43.336Z,43.19
2023-04-10T10:54:28.076Z,42.56
2023-04-10T10:56:54.694Z,42.55
2023-04-10T10:59:49.250Z,42.35
2023-04-10T11:02:17.966Z,41.83
2023-04-10T11:04:49.152Z,41.62
2023-04-10T11:07:16.949Z,41.85
2023-04-10T11:09:51.684Z,41.69
2023-04-10T11:12:25.003Z,42.18
2023-04-10T11:15:05.216Z,42.23
2023-04-10T11:17:52.129Z,42.34
2023-04-10T11:20:21.951Z,42.65
2023-04-10T11:23:09.330Z,42.21
2023-04-10T11:25:55.786Z,42.50
2023-04-10T11:28:39.092Z,42.72
2023-04-10T11:31:18.482Z,42.54
2023-04-10T11:34:00.856Z,42.71
2023-04-10T11:36:28.153Z,42.40
2023-04-10T11:38:58.778Z,42.00
2023-04-10T11:41:33.138Z,41.90
2023-04-10T11:44:04.495Z,41.78
2023-04-10T11:46:31.868Z,41.63
2023-04-10T11:49:00.635Z,41.46
2023-04-10T11:51:28.439Z,41.77
2023-04-10T11:54:04.955Z,41.42
2023-04-10T11:56:33.991Z,41.19
2023-04-10T11:59:02.442Z,40.94
2023-04-10T12:01:28.859Z,40.66
2023-04-10T12:03:55.492Z,40.94
2023-04-10T12:06:22.344Z,40.79
2023-04-10T12:08:51.621Z,40.95
2023-04-10T12:11:22.986Z,41.82
2023-04-10T12:13:57.557Z,41.95
2023-04-10T12:16:24.920Z,41.23
2023-04-10T12:18:55.139Z,40.86
2023-04-10T12:21:22.007Z,41.11
2023-04-10T12:23:48.493Z,41.50
2023-04-10T12:26:17.050Z,41.86
2023-04-10T12:28:53.457Z,42.14
2023-04-10T12:31:34.614Z,42.36
2023-04-10T12:34:02.493Z,42.49
2023-04-10T12:36:32.656Z,42.83
2023-04-10T12:39:00.741Z,43.00
2023-04-10T12:41:29.880Z,43.13
2023-04-10T12:44:11.639Z,43.17
2023-04-10T12:46:43.233Z,43.27
2023-04-10T12:49:16.350Z,43.48
2023-04-10T12:51:50.869Z,43.56
2023-04-10T12:54:37.108Z,43.81
2023-04-10T12:57:04.270Z,44.00
2023-04-10T12:59:31.625Z,44.15
2023-04-10T13:01:58.332Z,44.38
2023-04-10T13:04:26.842Z,44.52
2023-04-10T13:06:53.493Z,44.58
2023-04-10T13:09:20.062Z,44.90
2023-04-10T13:11:47.423Z,44.79
2023-04-10T13:14:14.991Z,44.93
2023-04-10T13:16:41.486Z,45.77
2023-04-10T13:19:08.088Z,46.07
2023-04-10T13:21:37.412Z,47.79
2023-04-10T13:24:03.974Z,48.03
2023-04-10T13:26:30.651Z,49.65
2023-04-10T13:28:59.887Z,49.70
2023-04-10T13:31:26.244Z,51.83
2023-04-10T13:33:52.810Z,51.45
2023-04-10T13:36:19.325Z,52.81
2023-04-10T13:38:45.790Z,53.15
2023-04-10T13:41:12.194Z,53.91
2023-04-10T13:43:38.814Z,53.82
2023-04-10T13:46:08.380Z,55.38
2023-04-10T13:48:40.745Z,56.34
2023-04-10T13:51:07.992Z,58.28
2023-04-10T13:53:34.721Z,59.91
2023-04-10T13:56:01.154Z,60.51
2023-04-10T13:58:31.703Z,60.22
2023-04-10T14:00:58.433Z,61.82
2023-04-10T14:03:25.056Z,63.17
2023-04-10T14:05:52.874Z,63.74
2023-04-10T14:08:19.519Z,64.16
2023-04-10T14:10:50.683Z,65.53
2023-04-10T14:13:18.008Z,66.43
2023-04-10T14:15:44.852Z,67.97
2023-04-10T14:18:11.424Z,68.85
2023-04-10T14:20:42.255Z,69.80
2023-04-10T14:23:09.462Z,71.10
2023-04-10T14:25:36.005Z,71.59
2023-04-10T14:28:02.537Z,71.96
2023-04-10T14:30:30.881Z,72.73
2023-04-10T14:32:57.722Z,72.81
2023-04-10T14:35:24.339Z,73.92
2023-04-10T14:37:50.900Z,74.44
2023-04-10T14:40:17.417Z,75.47
2023-04-10T14:42:44.005Z,75.66
2023-04-10T14:45:10.779Z,76.31
2023-04-10T14:47:37.271Z,76.59
2023-04-10T14:50:07.007Z,77.12
2023-04-10T14:52:33.535Z,77.75
2023-04-10T14:55:00.008Z,78.61
2023-04-10T14:57:26.509Z,79.50
2023-04-10T14:59:55.675Z,80.19
2023-04-10T15:02:22.179Z,82.34
2023-04-10T15:04:48.769Z,83.03
2023-04-10T15:07:15.179Z,84.18
2023-04-10T15:09:43.068Z,85.32
2023-04-10T15:12:09.567Z,86.26
2023-04-10T15:14:36.096Z,87.60
2023-04-10T15:17:02.636Z,88.70
2023-04-10T15:19:29.165Z,87.94
2023-04-10T15:21:55.741Z,87.99
2023-04-10T15:24:22.112Z,89.21
2023-04-10T15:26:50.690Z,89.16
2023-04-10T15:29:17.234Z,89.93
2023-04-10T15:31:43.760Z,90.03
2023-04-10T15:34:10.278Z,89.79
2023-04-10T15:36:36.661Z,89.47
2023-04-10T15:39:03.900Z,89.82
2023-04-10T15:41:31.942Z,90.00
2023-04-10T15:43:58.828Z,90.31
2023-04-10T15:46:26.001Z,90.05
2023-04-10T15:48:52.473Z,90.48
2023-04-10T15:51:18.874Z,91.23
2023-04-10T15:53:45.359Z,91.36
2023-04-10T15:56:16.040Z,91.23
2023-04-10T15:58:42.575Z,91.31
2023-04-10T16:01:09.278Z,92.15
2023-04-10T16:03:36.011Z,92.42
2023-04-10T16:06:02.736Z,92.54
2023-04-10T16:08:29.216Z,93.17
2023-04-10T16:10:57.920Z,93.36
2023-04-10T16:13:24.460Z,93.68
2023-04-10T16:15:51.563Z,94.09
2023-04-10T16:18:18.044Z,94.38
2023-04-10T16:20:44.531Z,94.69
2023-04-10T16:23:11.284Z,94.72
2023-04-10T16:25:37.828Z,95.16
2023-04-10T16:28:07.661Z,95.56
2023-04-10T16:30:35.336Z,95.66
2023-04-10T16:33:02.937Z,95.44
2023-04-10T16:35:29.366Z,95.59
2023-04-10T16:37:55.797Z,95.75
2023-04-10T16:40:22.350Z,95.71
2023-04-10T16:42:48.789Z,96.07
2023-04-10T16:45:18.065Z,96.10
2023-04-10T16:47:46.223Z,96.72
2023-04-10T16:50:12.757Z,96.59
2023-04-10T16:52:39.496Z,97.06
2023-04-10T16:55:06.465Z,97.10
2023-04-10T16:57:33.215Z,96.58
2023-04-10T16:59:59.843Z,96.51
2023-04-10T17:02:26.941Z,96.22
2023-04-10T17:04:56.567Z,96.15
2023-04-10T17:07:23.934Z,95.89
2023-04-10T17:09:50.558Z,95.95
2023-04-10T17:12:17.322Z,95.83
2023-04-10T17:14:44.106Z,95.83
2023-04-10T17:17:10.860Z,96.33
2023-04-10T17:19:37.285Z,96.43
2023-04-10T17:22:03.879Z,96.48
2023-04-10T17:24:31.416Z,96.55
2023-04-10T17:26:58.023Z,96.49
2023-04-10T17:29:25.738Z,96.85
2023-04-10T17:31:52.163Z,96.62
2023-04-10T17:34:18.699Z,96.44
2023-04-10T17:36:45.182Z,96.31
2023-04-10T17:39:11.600Z,96.28
2023-04-10T17:41:38.146Z,96.45
2023-04-10T17:44:08.757Z,96.65
2023-04-10T17:46:37.671Z,96.75
2023-04-10T17:49:04.581Z,96.53
2023-04-10T17:51:32.140Z,96.50
2023-04-10T17:53:58.783Z,96.32
2023-04-10T17:56:25.292Z,96.55
2023-04-10T17:58:54.150Z,96.84
2023-04-10T18:01:22.476Z,96.53
2023-04-10T18:03:49.296Z,96.46
2023-04-10T18:06:16.106Z,96.59
2023-04-10T18:08:44.692Z,96.63
2023-04-10T18:11:11.278Z,96.36
2023-04-10T18:13:37.792Z,96.12
2023-04-10T18:16:04.696Z,96.51
2023-04-10T18:18:34.658Z,96.17
2023-04-10T18:21:06.083Z,96.34
2023-04-10T18:23:33.292Z,95.99
2023-04-10T18:25:59.844Z,96.00
2023-04-10T18:28:26.974Z,95.85
2023-04-10T18:30:56.424Z,95.58
2023-04-10T18:33:26.378Z,95.49
2023-04-10T18:35:57.085Z,95.26
2023-04-10T18:38:24.272Z,95.03
2023-04-10T18:40:50.964Z,94.99
2023-04-10T18:43:17.390Z,94.71
2023-04-10T18:45:45.591Z,94.57
2023-04-10T18:48:13.771Z,94.63
2023-04-10T18:50:40.191Z,94.35
2023-04-10T18:53:06.703Z,94.27
2023-04-10T18:55:33.299Z,94.15
2023-04-10T18:57:59.850Z,94.02
2023-04-10T19:00:26.263Z,93.77
2023-04-10T19:02:53.608Z,93.52
2023-04-10T19:05:26.233Z,93.54
2023-04-10T19:08:02.909Z,93.24
2023-04-10T19:10:29.992Z,93.67
2023-04-10T19:12:57.222Z,93.86
2023-04-10T19:15:25.046Z,93.74
2023-04-10T19:17:53.569Z,93.74
2023-04-10T19:20:50.840Z,93.86
2023-04-10T19:23:07.637Z,93.95
2023-04-10T19:25:34.170Z,94.07
2023-04-10T19:28:00.851Z,93.79
2023-04-10T19:30:27.418Z,94.20
2023-04-10T19:32:55.450Z,93.92
2023-04-10T19:35:22.566Z,94.18
2023-04-10T19:37:49.917Z,94.22
2023-04-10T19:40:17.954Z,94.33
2023-04-10T19:42:44.399Z,94.04
2023-04-10T19:45:11.640Z,94.07
2023-04-10T19:47:38.081Z,93.99
2023-04-10T19:50:04.926Z,94.10
2023-04-10T19:52:31.395Z,94.10
2023-04-10T19:54:57.892Z,94.27
2023-04-10T19:57:24.622Z,94.34
2023-04-10T19:59:54.230Z,94.06
2023-04-10T20:02:22.723Z,94.05
2023-04-10T20:04:49.414Z,94.01
2023-04-10T20:07:16.003Z,94.12
2023-04-10T20:09:42.438Z,94.11
2023-04-10T20:12:09.197Z,93.86
2023-04-10T20:14:35.747Z,93.84
2023-04-10T20:17:02.150Z,93.85
2023-04-10T20:19:28.571Z,93.54
2023-04-10T20:21:55.145Z,93.40
2023-04-10T20:24:21.758Z,93.51
2023-04-10T20:26:48.308Z,93.39
2023-04-10T20:29:14.776Z,93.52
2023-04-10T20:31:41.221Z,93.58
2023-04-10T20:34:07.809Z,93.23
2023-04-10T20:36:34.896Z,93.60
2023-04-10T20:39:01.323Z,93.67
2023-04-10T20:41:27.915Z,93.47
2023-04-10T20:43:55.824Z,93.77
2023-04-10T20:46:22.592Z,93.57
2023-04-10T20:48:49.223Z,93.63
2023-04-10T20:51:15.642Z,93.75
2023-04-10T20:53:42.078Z,93.45
2023-04-10T20:56:08.963Z,93.67
2023-04-10T20:58:35.400Z,93.76
2023-04-10T21:01:01.932Z,93.69
2023-04-10T21:03:32.675Z,93.80
2023-04-10T21:05:59.201Z,93.40
2023-04-10T21:08:25.598Z,93.75
2023-04-10T21:10:52.153Z,93.56
2023-04-10T21:13:18.540Z,93.73
2023-04-10T21:15:45.098Z,93.25
2023-04-10T21:18:11.973Z,93.22
2023-04-10T21:20:39.080Z,93.05
2023-04-10T21:23:05.537Z,92.88
2023-04-10T21:25:33.516Z,92.92
2023-04-10T21:28:01.230Z,93.04
2023-04-10T21:30:28.474Z,93.22
2023-04-10T21:32:55.189Z,92.92
2023-04-10T21:35:24.133Z,92.86
2023-04-10T21:37:56.535Z,92.98
2023-04-10T21:40:24.824Z,92.76
2023-04-10T21:42:51.665Z,92.94
2023-04-10T21:45:18.125Z,92.94
2023-04-10T21:47:44.655Z,92.29
2023-04-10T21:50:11.376Z,92.31
2023-04-10T21:52:37.866Z,92.56
2023-04-10T21:55:07.056Z,92.81
2023-04-10T21:57:33.533Z,93.17
2023-04-10T21:59:59.960Z,93.26
2023-04-10T22:02:26.448Z,93.49
2023-04-10T22:04:54.862Z,91.70
2023-04-10T22:07:21.497Z,91.61
2023-04-10T22:09:47.953Z,91.49
2023-04-10T22:12:14.441Z,91.87
2023-04-10T22:14:41.423Z,90.73
2023-04-10T22:17:07.989Z,89.68
2023-04-10T22:19:34.562Z,89.61
2023-04-10T22:22:00.990Z,89.06
2023-04-10T22:24:27.534Z,88.77
2023-04-10T22:26:56.666Z,87.89
2023-04-10T22:29:23.048Z,87.95
2023-04-10T22:31:49.495Z,87.42
2023-04-10T22:34:16.067Z,87.19
2023-04-10T22:36:42.502Z,87.12
2023-04-10T22:39:08.992Z,86.48
2023-04-10T22:41:35.524Z,86.39
2023-04-10T22:44:02.165Z,86.78
2023-04-10T22:46:28.682Z,86.82
2023-04-10T22:48:56.694Z,86.39
2023-04-10T22:51:23.353Z,86.29
2023-04-10T22:53:49.790Z,86.07
2023-04-10T22:56:16.817Z,86.24
2023-04-10T22:58:43.328Z,85.92
2023-04-10T23:01:11.708Z,85.50
2023-04-10T23:03:38.212Z,85.36
2023-04-10T23:06:04.800Z,84.58
2023-04-10T23:08:31.220Z,85.16
2023-04-10T23:13:38.900Z,84.92
2023-04-10T23:16:05.907Z,84.82
2023-04-10T23:18:32.488Z,84.51
2023-04-10T23:21:03.672Z,84.94
2023-04-10T23:23:30.158Z,84.81
2023-04-10T23:25:58.634Z,85.36
2023-04-10T23:28:25.995Z,85.41
2023-04-10T23:30:52.592Z,85.68
2023-04-10T23:33:19.338Z,85.55
2023-04-10T23:35:45.916Z,85.84
2023-04-10T23:38:12.342Z,85.66
2023-04-10T23:40:38.817Z,85.23
2023-04-10T23:43:05.432Z,85.27
2023-04-10T23:45:32.013Z,84.95
2023-04-10T23:47:58.868Z,85.15
2023-04-10T23:50:25.455Z,85.11
2023-04-10T23:52:52.286Z,84.88
2023-04-10T23:55:19.030Z,84.83
2023-04-10T23:57:45.584Z,84.73
